createdAt,value
2017-11-26T00:01:48.448Z,2.10
2017-11-26T00:04:15.953Z,2.10
2017-11-26T00:06:43.474Z,2.10
2017-11-26T00:09:11.045Z,2.10
2017-11-26T00:11:38.617Z,2.00
2017-11-26T00:14:06.112Z,2.00
2017-11-26T00:16:33.660Z,2.00
2017-11-26T00:19:01.176Z,2.00
2017-11-26T00:21:28.692Z,2.00
2017-11-26T00:23:56.268Z,2.00
2017-11-26T00:26:23.785Z,2.00
2017-11-26T00:28:52.063Z,2.00
2017-11-26T00:31:21.117Z,2.00
2017-11-26T00:33:48.626Z,2.00
2017-11-26T00:36:16.933Z,2.00
2017-11-26T00:38:44.486Z,2.00
2017-11-26T00:41:11.999Z,2.00
2017-11-26T00:43:39.504Z,2.00
2017-11-26T00:46:07.076Z,2.00
2017-11-26T00:48:34.581Z,1.90
2017-11-26T00:51:02.090Z,1.90
2017-11-26T00:53:29.640Z,1.90
2017-11-26T00:55:57.167Z,1.90
2017-11-26T00:58:25.647Z,1.90
2017-11-26T01:00:54.053Z,1.90
2017-11-26T01:03:21.568Z,1.90
2017-11-26T01:05:49.082Z,1.90
2017-11-26T01:08:16.624Z,1.90
2017-11-26T01:10:44.127Z,2.00
2017-11-26T01:13:11.638Z,2.00
2017-11-26T01:15:39.220Z,2.00
2017-11-26T01:18:06.728Z,1.90
2017-11-26T01:20:34.237Z,1.70
2017-11-26T01:23:01.787Z,1.60
2017-11-26T01:25:29.305Z,1.40
2017-11-26T01:27:57.598Z,1.10
2017-11-26T01:30:25.924Z,1.10
2017-11-26T01:32:53.440Z,1.10
2017-11-26T01:35:20.951Z,1.20
2017-11-26T01:37:49.265Z,1.20
2017-11-26T01:40:16.784Z,1.20
2017-11-26T01:42:44.288Z,1.20
2017-11-26T01:45:11.844Z,1.20
2017-11-26T01:47:40.127Z,1.20
2017-11-26T01:50:08.401Z,1.20
2017-11-26T01:52:35.965Z,1.20
2017-11-26T01:55:03.473Z,1.10
2017-11-26T01:57:30.980Z,1.10
2017-11-26T01:59:58.535Z,1.10
2017-11-26T02:02:26.100Z,1.00
2017-11-26T02:04:54.416Z,1.00
2017-11-26T02:07:21.972Z,0.90
2017-11-26T02:09:50.256Z,1.10
2017-11-26T02:12:17.761Z,1.10
2017-11-26T02:14:45.384Z,1.00
2017-11-26T02:17:12.893Z,1.10
2017-11-26T02:19:40.396Z,1.10
2017-11-26T02:22:07.956Z,1.20
2017-11-26T02:24:35.455Z,1.30
2017-11-26T02:27:02.953Z,1.40
2017-11-26T02:29:31.125Z,1.50
2017-11-26T02:45:27.141Z,1.70
2017-11-26T02:47:54.648Z,1.70
2017-11-26T02:50:22.156Z,1.70
2017-11-26T02:52:49.724Z,1.70
2017-11-26T02:55:17.273Z,1.60
2017-11-26T02:57:44.783Z,1.60
2017-11-26T03:00:12.902Z,1.60
2017-11-26T03:02:40.411Z,1.40
2017-11-26T03:05:07.948Z,1.20
2017-11-26T03:07:35.516Z,0.80
2017-11-26T03:10:03.027Z,0.80
2017-11-26T03:12:30.843Z,0.80
2017-11-26T03:14:58.874Z,0.80
2017-11-26T03:17:26.412Z,0.80
2017-11-26T03:19:54.173Z,0.80
2017-11-26T03:22:21.740Z,0.70
2017-11-26T03:24:50.013Z,0.70
2017-11-26T03:27:17.524Z,0.70
2017-11-26T03:29:45.063Z,0.60
2017-11-26T03:32:12.568Z,0.50
2017-11-26T03:34:40.060Z,0.50
2017-11-26T03:37:07.639Z,0.50
2017-11-26T03:39:35.140Z,0.40
2017-11-26T03:42:02.648Z,0.30
2017-11-26T03:44:30.224Z,0.30
2017-11-26T03:46:57.731Z,0.40
2017-11-26T03:49:25.245Z,0.40
2017-11-26T03:51:52.812Z,0.30
2017-11-26T03:54:20.364Z,0.30
2017-11-26T03:56:47.861Z,0.30
2017-11-26T03:59:15.752Z,0.20
2017-11-26T04:01:43.269Z,0.10
2017-11-26T04:04:10.805Z,0.00
2017-11-26T04:06:38.417Z,0.00
2017-11-26T04:09:06.697Z,0.20
2017-11-26T04:11:34.977Z,0.20
2017-11-26T04:14:03.293Z,0.10
2017-11-26T04:16:32.192Z,0.10
2017-11-26T04:18:59.692Z,0.10
2017-11-26T04:21:27.295Z,0.10
2017-11-26T04:23:54.804Z,-0.10
2017-11-26T04:26:23.079Z,-0.20
2017-11-26T04:28:50.736Z,-0.20
2017-11-26T04:31:18.240Z,-0.30
2017-11-26T04:33:45.751Z,-0.30
2017-11-26T04:36:13.999Z,-0.10
2017-11-26T04:38:41.554Z,-0.20
2017-11-26T04:41:09.067Z,-0.10
2017-11-26T04:43:36.628Z,-0.10
2017-11-26T04:46:04.900Z,0.00
2017-11-26T04:48:32.410Z,0.00
2017-11-26T04:50:59.971Z,0.00
2017-11-26T04:53:27.492Z,0.00
2017-11-26T04:55:55.767Z,-0.10
2017-11-26T04:58:23.334Z,-0.10
2017-11-26T05:00:51.377Z,-0.10
2017-11-26T05:03:18.900Z,-0.20
2017-11-26T05:05:46.472Z,-0.30
2017-11-26T05:08:13.992Z,-0.30
2017-11-26T05:10:41.499Z,-0.30
2017-11-26T05:13:09.068Z,-0.10
2017-11-26T05:15:36.577Z,-0.20
2017-11-26T05:18:04.084Z,-0.10
2017-11-26T05:20:31.639Z,-0.10
2017-11-26T05:22:59.147Z,-0.20
2017-11-26T05:25:26.647Z,-0.10
2017-11-26T05:27:54.675Z,0.10
2017-11-26T05:30:22.184Z,0.20
2017-11-26T05:32:49.692Z,0.40
2017-11-26T05:35:17.236Z,0.40
2017-11-26T05:37:44.752Z,0.50
2017-11-26T05:40:12.257Z,0.60
2017-11-26T05:42:39.800Z,0.60
2017-11-26T05:45:07.318Z,0.60
2017-11-26T05:47:34.824Z,0.70
2017-11-26T05:50:02.388Z,0.70
2017-11-26T05:52:29.903Z,0.70
2017-11-26T05:54:57.414Z,0.70
2017-11-26T05:57:24.996Z,0.80
2017-11-26T05:59:52.516Z,0.80
2017-11-26T06:02:20.032Z,0.90
2017-11-26T06:04:47.593Z,0.90
2017-11-26T06:07:15.096Z,0.90
2017-11-26T06:09:42.601Z,0.90
2017-11-26T06:12:10.156Z,0.90
2017-11-26T06:14:38.617Z,0.90
2017-11-26T06:17:06.124Z,0.80
2017-11-26T06:19:33.688Z,0.70
2017-11-26T06:22:01.202Z,0.70
2017-11-26T06:24:28.703Z,0.70
2017-11-26T06:26:56.285Z,0.60
2017-11-26T06:29:23.798Z,0.60
2017-11-26T06:31:51.308Z,0.50
2017-11-26T06:34:19.741Z,0.40
2017-11-26T06:36:47.239Z,0.40
2017-11-26T06:39:15.517Z,0.30
2017-11-26T06:41:43.841Z,0.20
2017-11-26T06:44:11.347Z,0.20
2017-11-26T06:46:38.857Z,0.30
2017-11-26T06:49:06.840Z,0.30
2017-11-26T06:51:34.349Z,0.30
2017-11-26T06:54:01.854Z,0.40
2017-11-26T06:56:29.404Z,0.40
2017-11-26T06:58:56.911Z,0.40
2017-11-26T07:01:24.431Z,0.50
2017-11-26T07:03:51.972Z,0.60
2017-11-26T07:06:19.585Z,0.60
2017-11-26T07:08:47.111Z,0.70
2017-11-26T07:11:14.776Z,0.70
2017-11-26T07:13:42.292Z,0.80
2017-11-26T07:16:09.911Z,0.80
2017-11-26T07:18:38.980Z,0.70
2017-11-26T07:21:06.511Z,0.70
2017-11-26T07:23:34.017Z,0.70
2017-11-26T07:26:01.560Z,0.80
2017-11-26T07:28:29.129Z,0.80
2017-11-26T07:30:56.643Z,0.80
2017-11-26T07:33:24.215Z,0.70
2017-11-26T07:35:52.281Z,0.80
2017-11-26T07:38:19.784Z,1.00
2017-11-26T07:40:47.345Z,1.00
2017-11-26T07:43:14.843Z,1.20
2017-11-26T07:45:43.770Z,1.30
2017-11-26T07:48:11.319Z,1.40
2017-11-26T07:50:39.157Z,1.60
2017-11-26T07:53:07.508Z,1.60
2017-11-26T07:55:35.004Z,1.90
2017-11-26T07:58:03.300Z,2.00
2017-11-26T08:00:30.812Z,2.00
2017-11-26T08:02:58.312Z,2.20
2017-11-26T08:05:25.891Z,2.30
2017-11-26T08:07:53.419Z,2.40
2017-11-26T08:10:20.910Z,2.40
2017-11-26T08:12:48.443Z,2.30
2017-11-26T08:15:15.944Z,2.40
2017-11-26T08:17:43.439Z,2.30
2017-11-26T08:20:11.755Z,2.30
2017-11-26T08:22:39.286Z,2.30
2017-11-26T08:25:06.840Z,2.30
2017-11-26T08:27:34.399Z,2.40
2017-11-26T08:30:01.925Z,2.60
2017-11-26T08:32:29.425Z,2.90
2017-11-26T08:34:57.807Z,3.10
2017-11-26T08:37:25.625Z,3.40
2017-11-26T08:39:53.165Z,3.50
2017-11-26T08:42:20.705Z,3.70
2017-11-26T08:44:48.207Z,3.80
2017-11-26T08:47:15.916Z,3.70
2017-11-26T08:49:43.503Z,3.80
2017-11-26T08:52:11.628Z,3.60
2017-11-26T08:54:39.143Z,3.30
2017-11-26T08:57:06.794Z,3.30
2017-11-26T08:59:34.304Z,3.50
2017-11-26T09:02:02.611Z,3.90
2017-11-26T09:04:30.258Z,3.90
2017-11-26T09:20:24.851Z,3.70
2017-11-26T09:22:53.076Z,3.60
2017-11-26T09:25:20.412Z,3.70
2017-11-26T09:27:47.969Z,4.10
2017-11-26T09:30:15.552Z,3.90
2017-11-26T09:32:43.064Z,3.70
2017-11-26T09:35:10.632Z,3.80
2017-11-26T09:37:38.130Z,4.00
2017-11-26T09:40:05.627Z,4.10
2017-11-26T09:42:33.339Z,4.00
2017-11-26T09:45:00.900Z,3.90
2017-11-26T09:47:28.404Z,3.80
2017-11-26T09:49:55.961Z,4.00
2017-11-26T09:52:23.480Z,4.20
2017-11-26T09:54:50.985Z,4.00
2017-11-26T09:57:18.541Z,4.10
2017-11-26T09:59:46.035Z,4.10
2017-11-26T10:02:13.803Z,4.20
2017-11-26T10:04:41.388Z,4.50
2017-11-26T10:07:08.927Z,4.60
2017-11-26T10:09:36.508Z,4.80
2017-11-26T10:12:04.042Z,5.20
2017-11-26T10:14:31.544Z,5.00
2017-11-26T10:16:59.859Z,5.30
2017-11-26T10:19:27.358Z,5.20
2017-11-26T10:21:54.901Z,5.10
2017-11-26T10:24:22.484Z,5.10
2017-11-26T10:26:49.984Z,5.20
2017-11-26T10:29:17.485Z,5.20
2017-11-26T10:31:45.012Z,5.00
2017-11-26T10:34:12.620Z,4.80
2017-11-26T10:36:40.166Z,4.50
2017-11-26T10:39:07.776Z,4.30
2017-11-26T10:41:35.336Z,4.10
2017-11-26T10:44:02.837Z,4.10
2017-11-26T10:46:30.340Z,4.30
2017-11-26T10:48:58.666Z,4.40
2017-11-26T10:51:26.154Z,4.40
2017-11-26T10:53:53.657Z,4.30
2017-11-26T10:56:21.156Z,4.20
2017-11-26T10:58:48.697Z,4.30
2017-11-26T11:01:16.228Z,4.30
2017-11-26T11:03:43.823Z,4.30
2017-11-26T11:06:11.449Z,4.30
2017-11-26T11:08:38.959Z,4.30
2017-11-26T11:11:06.467Z,4.20
2017-11-26T11:13:34.312Z,4.10
2017-11-26T11:16:01.820Z,4.30
2017-11-26T11:18:29.321Z,4.30
2017-11-26T11:20:57.641Z,4.00
2017-11-26T11:23:25.109Z,4.00
2017-11-26T11:25:52.699Z,4.10
2017-11-26T11:28:20.264Z,4.10
2017-11-26T11:30:47.766Z,4.00
2017-11-26T11:33:15.325Z,4.00
2017-11-26T11:35:43.543Z,4.00
2017-11-26T11:38:11.044Z,3.70
2017-11-26T11:40:38.912Z,3.30
2017-11-26T11:43:06.432Z,3.10
2017-11-26T11:45:33.771Z,2.70
2017-11-26T11:48:01.273Z,2.10
2017-11-26T11:50:29.186Z,1.90
2017-11-26T11:52:56.724Z,1.80
2017-11-26T11:55:24.232Z,1.50
2017-11-26T11:57:51.884Z,1.40
2017-11-26T12:00:19.956Z,1.40
2017-11-26T12:02:47.517Z,1.50
2017-11-26T12:05:15.228Z,1.70
2017-11-26T12:07:42.740Z,1.80
2017-11-26T12:10:10.312Z,1.90
2017-11-26T12:12:37.870Z,2.00
2017-11-26T12:15:05.373Z,2.20
2017-11-26T12:17:32.915Z,2.50
2017-11-26T12:20:00.472Z,2.60
2017-11-26T12:22:28.753Z,2.60
2017-11-26T12:24:56.295Z,2.70
2017-11-26T12:27:23.796Z,2.70
2017-11-26T12:29:51.301Z,2.80
2017-11-26T12:32:18.856Z,2.90
2017-11-26T12:34:46.360Z,3.20
2017-11-26T12:37:13.860Z,3.40
2017-11-26T12:39:41.417Z,3.50
2017-11-26T12:42:08.919Z,3.70
2017-11-26T12:44:36.420Z,3.70
2017-11-26T12:47:04.468Z,3.80
2017-11-26T12:49:32.109Z,3.80
2017-11-26T12:51:59.652Z,3.80
2017-11-26T12:54:27.219Z,3.90
2017-11-26T12:56:54.775Z,3.80
2017-11-26T12:59:22.536Z,3.70
2017-11-26T13:01:50.037Z,3.70
2017-11-26T13:04:17.659Z,3.60
2017-11-26T13:06:45.161Z,3.60
2017-11-26T13:09:12.660Z,3.50
2017-11-26T13:11:40.689Z,3.40
2017-11-26T13:14:09.056Z,3.40
2017-11-26T13:16:36.608Z,3.50
2017-11-26T13:19:04.155Z,3.50
2017-11-26T13:21:32.088Z,3.60
2017-11-26T13:23:59.639Z,3.70
2017-11-26T13:26:27.153Z,3.80
2017-11-26T13:28:55.424Z,4.00
2017-11-26T13:31:24.429Z,4.00
2017-11-26T13:33:51.936Z,4.00
2017-11-26T13:36:19.432Z,4.00
2017-11-26T13:38:47.739Z,4.00
2017-11-26T13:41:15.256Z,4.00
2017-11-26T13:43:43.112Z,4.00
2017-11-26T13:46:10.430Z,3.90
2017-11-26T13:48:37.952Z,3.90
2017-11-26T13:51:05.512Z,3.90
2017-11-26T13:53:33.014Z,4.00
2017-11-26T13:56:00.515Z,3.90
2017-11-26T13:58:28.077Z,4.00
2017-11-26T14:00:55.600Z,4.10
2017-11-26T14:03:23.233Z,4.10
2017-11-26T14:05:50.792Z,4.00
2017-11-26T14:08:18.289Z,4.10
2017-11-26T14:10:45.812Z,4.10
2017-11-26T14:13:13.387Z,4.10
2017-11-26T14:15:40.900Z,4.20
2017-11-26T14:18:08.396Z,4.10
2017-11-26T14:20:35.969Z,4.00
2017-11-26T14:23:03.500Z,3.90
2017-11-26T14:25:31.013Z,3.80
2017-11-26T14:27:59.332Z,3.70
2017-11-26T14:30:26.832Z,3.70
2017-11-26T14:32:54.328Z,3.70
2017-11-26T14:35:22.100Z,3.60
2017-11-26T14:37:49.596Z,3.70
2017-11-26T14:40:17.108Z,3.70
2017-11-26T14:42:44.758Z,3.70
2017-11-26T14:45:12.309Z,3.60
2017-11-26T14:47:40.853Z,3.60
2017-11-26T14:50:08.437Z,3.60
2017-11-26T14:52:36.284Z,3.60
2017-11-26T14:55:04.652Z,3.60
2017-11-26T14:57:32.964Z,3.60
2017-11-26T15:00:01.208Z,3.70
2017-11-26T15:02:30.375Z,3.70
2017-11-26T15:04:57.956Z,3.50
2017-11-26T15:07:25.572Z,3.60
2017-11-26T15:09:53.871Z,3.50
2017-11-26T15:12:22.135Z,3.50
2017-11-26T15:14:50.388Z,3.50
2017-11-26T15:17:18.376Z,3.50
2017-11-26T15:19:46.010Z,3.40
2017-11-26T15:22:13.554Z,3.40
2017-11-26T15:24:41.164Z,3.30
2017-11-26T15:27:08.588Z,3.20
2017-11-26T15:29:36.264Z,3.00
2017-11-26T15:32:03.767Z,2.90
2017-11-26T15:34:31.324Z,2.90
2017-11-26T15:36:58.847Z,3.00
2017-11-26T15:39:26.360Z,3.00
2017-11-26T15:41:54.853Z,3.00
2017-11-26T15:44:22.532Z,3.00
2017-11-26T15:46:49.927Z,3.00
2017-11-26T15:49:17.437Z,3.00
2017-11-26T15:51:45.914Z,3.00
2017-11-26T15:54:13.439Z,3.10
2017-11-26T15:56:41.121Z,3.10
2017-11-26T15:59:09.232Z,3.10
2017-11-26T16:01:36.954Z,3.10
2017-11-26T16:04:04.380Z,3.10
2017-11-26T16:06:32.417Z,3.10
2017-11-26T16:08:59.924Z,3.10
2017-11-26T16:11:27.575Z,3.10
2017-11-26T16:13:55.113Z,3.10
2017-11-26T16:16:23.915Z,3.10
2017-11-26T16:18:51.449Z,3.10
2017-11-26T16:21:19.127Z,3.10
2017-11-26T16:23:47.456Z,3.10
2017-11-26T16:26:14.988Z,3.10
2017-11-26T16:28:43.281Z,3.10
2017-11-26T16:31:11.353Z,3.10
2017-11-26T16:33:39.357Z,3.10
2017-11-26T16:36:06.868Z,3.00
2017-11-26T16:38:35.296Z,3.00
2017-11-26T16:41:02.804Z,3.00
2017-11-26T16:43:30.302Z,3.10
2017-11-26T16:45:57.708Z,3.10
2017-11-26T16:48:25.975Z,3.10
2017-11-26T16:50:53.485Z,3.10
2017-11-26T16:53:21.797Z,3.10
2017-11-26T16:55:49.380Z,3.10
2017-11-26T16:58:16.904Z,3.10
2017-11-26T17:00:44.453Z,3.20
2017-11-26T17:03:12.068Z,3.10
2017-11-26T17:05:39.713Z,3.30
2017-11-26T17:08:08.036Z,3.30
2017-11-26T17:10:36.180Z,3.30
2017-11-26T17:13:03.837Z,3.30
2017-11-26T17:15:31.386Z,3.20
2017-11-26T17:17:59.760Z,3.30
2017-11-26T17:20:27.038Z,3.20
2017-11-26T17:22:54.377Z,3.30
2017-11-26T17:25:22.670Z,3.30
2017-11-26T17:27:50.365Z,3.30
2017-11-26T17:30:18.380Z,3.20
2017-11-26T17:32:46.760Z,3.00
2017-11-26T17:35:14.220Z,3.00
2017-11-26T17:37:41.743Z,2.90
2017-11-26T17:40:09.712Z,2.80
2017-11-26T17:42:37.288Z,2.60
2017-11-26T17:45:05.572Z,2.50
2017-11-26T17:47:33.870Z,2.50
2017-11-26T17:50:01.527Z,2.50
2017-11-26T17:52:29.036Z,2.50
2017-11-26T17:54:56.552Z,2.50
2017-11-26T17:57:24.140Z,2.60
2017-11-26T17:59:51.653Z,2.30
2017-11-26T18:02:19.419Z,2.60
2017-11-26T18:04:47.836Z,2.60
2017-11-26T18:07:15.757Z,2.60
2017-11-26T18:09:43.936Z,2.60
2017-11-26T18:12:11.981Z,2.60
2017-11-26T18:14:39.494Z,2.60
2017-11-26T18:17:07.481Z,2.60
2017-11-26T18:19:35.538Z,2.50
2017-11-26T18:22:03.050Z,2.40
2017-11-26T18:24:30.663Z,2.30
2017-11-26T18:26:58.261Z,2.30
2017-11-26T18:29:25.770Z,2.20
2017-11-26T18:31:53.281Z,2.20
2017-11-26T18:34:21.382Z,2.10
2017-11-26T18:36:49.775Z,2.00
2017-11-26T18:39:17.127Z,2.00
2017-11-26T18:41:44.764Z,1.90
2017-11-26T18:44:12.300Z,1.80
2017-11-26T18:46:41.413Z,1.80
2017-11-26T18:49:08.956Z,1.70
2017-11-26T18:51:36.381Z,1.60
2017-11-26T18:54:03.920Z,1.50
2017-11-26T18:56:31.564Z,1.60
2017-11-26T18:58:59.492Z,1.50
2017-11-26T19:01:26.768Z,1.40
2017-11-26T19:03:54.487Z,1.50
2017-11-26T19:06:22.050Z,1.50
2017-11-26T19:08:50.224Z,1.40
2017-11-26T19:11:17.575Z,1.40
2017-11-26T19:13:45.018Z,1.30
2017-11-26T19:16:13.345Z,1.30
2017-11-26T19:18:41.239Z,1.30
2017-11-26T19:21:08.761Z,1.20
2017-11-26T19:23:36.456Z,1.20
2017-11-26T19:26:04.041Z,1.30
2017-11-26T19:28:33.905Z,1.20
2017-11-26T19:31:01.421Z,1.20
2017-11-26T19:33:29.768Z,1.20
2017-11-26T19:35:58.013Z,1.30
2017-11-26T19:38:25.607Z,1.30
2017-11-26T19:40:53.121Z,1.40
2017-11-26T19:43:20.636Z,1.40
2017-11-26T19:45:48.228Z,1.50
2017-11-26T19:48:15.787Z,1.50
2017-11-26T19:50:43.299Z,1.60
2017-11-26T19:53:10.907Z,1.70
2017-11-26T19:55:38.958Z,1.70
2017-11-26T19:58:06.803Z,1.70
2017-11-26T20:00:35.053Z,1.70
2017-11-26T20:03:02.483Z,1.70
2017-11-26T20:05:30.684Z,1.80
2017-11-26T20:07:58.284Z,1.90
2017-11-26T20:10:25.866Z,2.10
2017-11-26T20:12:53.377Z,2.10
2017-11-26T20:15:20.988Z,2.20
2017-11-26T20:17:48.552Z,2.30
2017-11-26T20:20:16.395Z,2.30
2017-11-26T20:22:43.939Z,2.40
2017-11-26T20:25:11.436Z,2.30
2017-11-26T20:27:39.049Z,2.30
2017-11-26T20:30:06.550Z,2.30
2017-11-26T20:32:34.069Z,2.20
2017-11-26T20:35:02.229Z,2.30
2017-11-26T20:37:29.736Z,2.30
2017-11-26T20:39:57.252Z,2.30
2017-11-26T20:42:24.906Z,2.40
2017-11-26T20:44:52.465Z,2.30
2017-11-26T20:47:19.972Z,2.30
2017-11-26T20:49:47.549Z,2.30
2017-11-26T20:52:15.073Z,2.30
2017-11-26T20:54:42.703Z,2.20
2017-11-26T20:57:10.244Z,2.20
2017-11-26T20:59:37.782Z,2.10
2017-11-26T21:02:05.288Z,2.10
2017-11-26T21:04:32.841Z,2.10
2017-11-26T21:07:00.354Z,2.10
2017-11-26T21:09:27.889Z,2.10
2017-11-26T21:11:55.500Z,2.00
2017-11-26T21:14:23.022Z,1.90
2017-11-26T21:16:50.534Z,1.90
2017-11-26T21:19:18.106Z,2.00
2017-11-26T21:21:45.611Z,2.00
2017-11-26T21:24:13.529Z,2.00
2017-11-26T21:26:41.094Z,2.00
2017-11-26T21:29:09.364Z,1.90
2017-11-26T21:31:36.872Z,1.90
2017-11-26T21:34:04.306Z,1.80
2017-11-26T21:36:32.324Z,1.80
2017-11-26T21:38:59.840Z,1.80
2017-11-26T21:41:27.353Z,1.80
2017-11-26T21:43:55.010Z,1.80
2017-11-26T21:46:22.517Z,1.90
2017-11-26T21:48:51.297Z,1.90
2017-11-26T21:51:19.675Z,1.90
2017-11-26T21:53:47.855Z,2.00
2017-11-26T21:56:15.825Z,2.10
2017-11-26T21:58:43.403Z,2.10
2017-11-26T22:01:11.060Z,2.10
2017-11-26T22:03:39.191Z,2.20
2017-11-26T22:06:06.757Z,2.40
2017-11-26T22:08:35.052Z,2.20
2017-11-26T22:11:03.372Z,2.10
2017-11-26T22:13:31.017Z,2.10
2017-11-26T22:15:58.931Z,2.10
2017-11-26T22:18:26.863Z,2.00
2017-11-26T22:20:54.431Z,2.00
2017-11-26T22:23:22.012Z,1.90
2017-11-26T22:25:49.584Z,1.90
2017-11-26T22:28:17.148Z,1.90
2017-11-26T22:30:44.657Z,1.90
2017-11-26T22:33:12.156Z,1.90
2017-11-26T22:35:39.716Z,1.90
2017-11-26T22:38:07.216Z,1.90
2017-11-26T22:40:34.723Z,1.90
2017-11-26T22:43:02.283Z,1.90
2017-11-26T22:45:29.780Z,2.00
2017-11-26T22:47:57.291Z,2.00
2017-11-26T22:50:25.105Z,2.10
2017-11-26T22:52:53.384Z,2.20
2017-11-26T22:55:20.928Z,2.10
2017-11-26T22:57:48.477Z,2.30
2017-11-26T23:00:16.040Z,2.30
2017-11-26T23:02:43.572Z,2.30
2017-11-26T23:05:11.180Z,2.30
2017-11-26T23:07:38.700Z,2.20
2017-11-26T23:10:06.223Z,2.30
2017-11-26T23:12:33.780Z,2.30
2017-11-26T23:15:01.280Z,2.40
2017-11-26T23:17:28.787Z,2.40
2017-11-26T23:19:57.121Z,2.60
2017-11-26T23:22:24.624Z,2.60
2017-11-26T23:24:52.121Z,2.60
2017-11-26T23:27:20.158Z,2.60
2017-11-26T23:29:47.665Z,2.70
2017-11-26T23:32:15.247Z,2.60
2017-11-26T23:34:42.795Z,2.60
2017-11-26T23:37:10.297Z,2.60
2017-11-26T23:39:37.796Z,2.70
2017-11-26T23:42:05.411Z,2.60
2017-11-26T23:44:32.921Z,2.60
2017-11-26T23:47:00.416Z,2.60
2017-11-26T23:49:27.964Z,2.60
2017-11-26T23:51:55.488Z,2.60
2017-11-26T23:54:22.995Z,2.50
2017-11-26T23:56:51.336Z,2.50
2017-11-26T23:59:18.835Z,2.50
